aviador You're here:

KZPH Decoded Metar

in
Report Time2018-01-22 02:15:00
UTC Time2018-01-22 02:04:24
Flight Rules vfr VFR
Wind070° at 04 kt
W.Decomp.*RWY 05: 3.8 kt HW 1.4 kt RCW
RWY 04: 3.5 kt HW 2.0 kt RCW
RWY 01: 2.0 kt HW 3.5 kt RCW
RWY 36: 1.4 kt HW 3.8 kt RCW
W.Rank070° ranks 7
Current wind is below 070° avg. (5.6)
Visibility9999 m
Phenomena:N/A
Clouds:N/A
Expected CloudBase > 1,600 ft AGL from Temp-Dew spread
CeilingNone
Temp18°C
Dew Point14°C (78% RH)
AAT17.9°C
QNH1022 hPa
Raw Report
KZPH 220215Z AUTO 07004KT 10SM CLR 18/14 A3017 RMK AO2
T01800142=

Extra information for KZPH:More info

Social comments